La rose des vents
Donnes mto: Semaine 09/07/07 - 15/07/07 (S 28)
Date Horaire Temp. E. Hum. E. P.atmo. Pluie Vent 1mn Direction Ensoleilleme Ev.Tr. Solaire P. de rose Temp au vent Rafales
09/07/2007 00:00 18,9 C 89 % 1014,2 hPa 0,0 l/m 3,8 km/h (1 Bft) O-NO 0,00 h 0,025 mm 0 W/m 17,0 C 18,9 C 5,5 km/h (1 Bft)
09/07/2007 01:00 18,7 C 89 % 1013,7 hPa 0,0 l/m 3,9 km/h (1 Bft) O-NO 0,00 h 0,025 mm 0 W/m 16,9 C 18,7 C 5,4 km/h (1 Bft)
09/07/2007 02:00 18,7 C 89 % 1013,3 hPa 0,0 l/m 4,3 km/h (1 Bft) O 0,00 h 0,025 mm 0 W/m 16,8 C 18,7 C 5,8 km/h (1 Bft)
09/07/2007 03:00 18,1 C 89 % 1013,1 hPa 0,0 l/m 1,6 km/h (1 Bft) O-NO 0,00 h 0,025 mm 0 W/m 16,4 C 18,1 C 2,9 km/h (1 Bft)
09/07/2007 04:00 17,8 C 90 % 1012,2 hPa 0,0 l/m 0,6 km/h (0 Bft) NO 0,00 h 0,025 mm 0 W/m 16,2 C 17,8 C 1,4 km/h (1 Bft)
09/07/2007 05:00 17,7 C 91 % 1011,5 hPa 0,0 l/m 0,2 km/h (0 Bft) NO 0,00 h 0,025 mm 0 W/m 16,2 C 17,7 C 0,9 km/h (0 Bft)
09/07/2007 06:00 18,1 C 91 % 1012,0 hPa 0,0 l/m 0,4 km/h (0 Bft) NO 0,30 h 0,000 mm 41 W/m 16,5 C 18,1 C 1,3 km/h (1 Bft)
09/07/2007 07:00 19,0 C 88 % 1011,5 hPa 0,2 l/m 7,7 km/h (2 Bft) N-NE 0,00 h 0,025 mm 29 W/m 17,0 C 19,0 C 11,1 km/h (2 Bft)
09/07/2007 08:00 18,7 C 92 % 1012,8 hPa 0,8 l/m 5,8 km/h (2 Bft) O 0,00 h 0,025 mm 18 W/m 17,4 C 18,7 C 8,6 km/h (2 Bft)
09/07/2007 09:00 19,2 C 94 % 1012,2 hPa 0,4 l/m 1,7 km/h (1 Bft) NO 0,00 h 0,025 mm 118 W/m 18,2 C 19,2 C 3,3 km/h (1 Bft)
09/07/2007 10:00 20,5 C 92 % 1012,0 hPa 0,0 l/m 1,9 km/h (1 Bft) NO 0,20 h 0,076 mm 346 W/m 19,2 C 20,5 C 4,1 km/h (1 Bft)
09/07/2007 11:00 22,7 C 77 % 1011,5 hPa 0,0 l/m 8,1 km/h (2 Bft) SO 0,32 h 0,203 mm 413 W/m 18,4 C 22,7 C 11,5 km/h (2 Bft)
09/07/2007 12:00 26,1 C 63 % 1010,9 hPa 0,0 l/m 11,5 km/h (2 Bft) SO 0,90 h 0,305 mm 800 W/m 18,6 C 26,1 C 16,1 km/h (3 Bft)
09/07/2007 13:00 27,9 C 63 % 1010,0 hPa 0,0 l/m 10,7 km/h (2 Bft) E-NE 1,00 h 0,559 mm 833 W/m 20,2 C 27,9 C 15,9 km/h (3 Bft)
09/07/2007 14:00 28,0 C 58 % 1009,3 hPa 0,0 l/m 11,2 km/h (2 Bft) NE 0,82 h 0,610 mm 635 W/m 18,8 C 28,0 C 17,1 km/h (3 Bft)
09/07/2007 15:00 26,7 C 62 % 1009,1 hPa 0,0 l/m 9,7 km/h (2 Bft) NE 0,57 h 0,483 mm 538 W/m 18,8 C 26,7 C 14,3 km/h (3 Bft)
09/07/2007 16:00 27,9 C 50 % 1008,5 hPa 0,0 l/m 10,1 km/h (2 Bft) NE 0,68 h 0,406 mm 539 W/m 16,0 C 27,9 C 15,2 km/h (3 Bft)
09/07/2007 17:00 29,2 C 29 % 1007,9 hPa 0,0 l/m 18,0 km/h (3 Bft) O-SO 0,45 h 0,432 mm 389 W/m 9,3 C 29,2 C 25,0 km/h (4 Bft)
09/07/2007 18:00 29,1 C 29 % 1007,6 hPa 0,0 l/m 19,5 km/h (3 Bft) O-SO 1,00 h 0,483 mm 417 W/m 9,1 C 29,1 C 28,1 km/h (4 Bft)
09/07/2007 19:00 27,8 C 28 % 1007,4 hPa 0,0 l/m 16,4 km/h (3 Bft) O 1,00 h 0,508 mm 214 W/m 7,9 C 27,8 C 24,0 km/h (4 Bft)
09/07/2007 20:00 25,5 C 29 % 1007,3 hPa 0,2 l/m 17,2 km/h (3 Bft) O 0,10 h 0,356 mm 33 W/m 6,2 C 25,5 C 24,9 km/h (4 Bft)
09/07/2007 21:00 23,7 C 29 % 1007,4 hPa 0,0 l/m 18,8 km/h (3 Bft) O-SO 0,00 h 0,229 mm 7 W/m 4,5 C 23,7 C 26,1 km/h (4 Bft)
09/07/2007 22:00 22,8 C 29 % 1007,6 hPa 0,0 l/m 20,7 km/h (4 Bft) O-SO 0,00 h 0,229 mm 0 W/m 3,7 C 22,8 C 28,4 km/h (4 Bft)
09/07/2007 23:00 22,0 C 30 % 1007,5 hPa 0,0 l/m 18,5 km/h (3 Bft) O 0,00 h 0,229 mm 0 W/m 3,5 C 22,0 C 26,7 km/h (4 Bft)
10/07/2007 00:00 21,4 C 29 % 1006,9 hPa 0,0 l/m 19,0 km/h (3 Bft) O 0,00 h 0,203 mm 0 W/m 2,5 C 21,4 C 26,7 km/h (4 Bft)
10/07/2007 01:00 20,5 C 27 % 1006,5 hPa 0,0 l/m 19,7 km/h (3 Bft) O-SO 0,00 h 0,203 mm 0 W/m 1,0 C 20,5 C 26,8 km/h (4 Bft)
10/07/2007 02:00 19,5 C 27 % 1005,9 hPa 0,0 l/m 16,9 km/h (3 Bft) O-SO 0,00 h 0,229 mm 0 W/m -0,1 C 19,5 C 22,6 km/h (4 Bft)
10/07/2007 03:00 18,9 C 25 % 1005,5 hPa 0,0 l/m 11,1 km/h (2 Bft) O 0,00 h 0,203 mm 0 W/m -1,5 C 18,9 C 16,5 km/h (3 Bft)
10/07/2007 04:00 18,3 C 27 % 1005,6 hPa 0,0 l/m 7,2 km/h (2 Bft) S-SE 0,00 h 0,152 mm 0 W/m -0,9 C 18,3 C 10,7 km/h (2 Bft)
10/07/2007 05:00 17,3 C 29 % 1006,5 hPa 0,0 l/m 2,8 km/h (1 Bft) S 0,00 h 0,127 mm 5 W/m -0,8 C 17,3 C 4,9 km/h (1 Bft)
10/07/2007 06:00 17,0 C 30 % 1007,1 hPa 0,0 l/m 2,0 km/h (1 Bft) O 0,00 h 0,051 mm 16 W/m -0,9 C 17,0 C 3,2 km/h (1 Bft)
10/07/2007 07:00 18,0 C 31 % 1007,8 hPa 0,0 l/m 1,3 km/h (1 Bft) O 0,38 h 0,051 mm 110 W/m 0,6 C 18,0 C 2,6 km/h (1 Bft)
10/07/2007 08:00 21,1 C 30 % 1008,1 hPa 0,0 l/m 1,1 km/h (1 Bft) O 1,00 h 0,076 mm 348 W/m 3,0 C 21,1 C 2,5 km/h (1 Bft)
10/07/2007 09:00 23,2 C 30 % 1008,7 hPa 0,0 l/m 6,5 km/h (2 Bft) S-SO 1,00 h 0,229 mm 516 W/m 4,6 C 23,2 C 10,1 km/h (2 Bft)
10/07/2007 10:00 24,2 C 30 % 1008,8 hPa 0,0 l/m 11,4 km/h (2 Bft) S-SO 1,00 h 0,406 mm 666 W/m 5,5 C 24,2 C 16,9 km/h (3 Bft)
10/07/2007 11:00 25,3 C 27 % 1008,8 hPa 0,0 l/m 14,2 km/h (3 Bft) S 1,00 h 0,533 mm 786 W/m 4,7 C 25,3 C 21,3 km/h (4 Bft)
10/07/2007 12:00 25,6 C 25 % 1008,8 hPa 0,0 l/m 14,2 km/h (3 Bft) S 1,00 h 0,660 mm 866 W/m 4,1 C 25,6 C 22,0 km/h (4 Bft)
10/07/2007 13:00 26,3 C 24 % 1008,4 hPa 0,0 l/m 12,9 km/h (3 Bft) E 1,00 h 0,711 mm 896 W/m 4,3 C 26,3 C 21,2 km/h (4 Bft)
10/07/2007 14:00 26,3 C 25 % 1007,9 hPa 0,0 l/m 15,3 km/h (3 Bft) E 1,00 h 0,737 mm 875 W/m 4,7 C 26,3 C 21,5 km/h (4 Bft)
10/07/2007 15:00 27,0 C 28 % 1007,1 hPa 0,0 l/m 15,9 km/h (3 Bft) E-NE 1,00 h 0,737 mm 804 W/m 6,9 C 27,0 C 21,8 km/h (4 Bft)
10/07/2007 16:00 27,2 C 27 % 1006,7 hPa 0,0 l/m 12,9 km/h (3 Bft) E-NE 1,00 h 0,711 mm 694 W/m 6,5 C 27,2 C 18,6 km/h (3 Bft)
10/07/2007 17:00 27,0 C 27 % 1006,4 hPa 0,0 l/m 9,9 km/h (2 Bft) E 1,00 h 0,610 mm 555 W/m 6,3 C 27,0 C 15,6 km/h (3 Bft)
10/07/2007 18:00 25,3 C 36 % 1006,4 hPa 0,0 l/m 6,6 km/h (2 Bft) E 1,00 h 0,483 mm 380 W/m 9,1 C 25,3 C 12,7 km/h (3 Bft)
10/07/2007 19:00 24,0 C 43 % 1007,1 hPa 0,0 l/m 3,8 km/h (1 Bft) E 1,00 h 0,305 mm 212 W/m 10,5 C 24,0 C 8,3 km/h (2 Bft)
10/07/2007 20:00 21,5 C 50 % 1007,9 hPa 0,0 l/m 2,3 km/h (1 Bft) S-SE 0,12 h 0,178 mm 31 W/m 10,5 C 21,5 C 3,8 km/h (1 Bft)
10/07/2007 21:00 19,9 C 53 % 1008,5 hPa 0,0 l/m 4,6 km/h (1 Bft) O 0,00 h 0,051 mm 6 W/m 10,0 C 19,9 C 6,5 km/h (2 Bft)
10/07/2007 22:00 19,4 C 41 % 1008,9 hPa 0,0 l/m 5,8 km/h (2 Bft) O 0,00 h 0,051 mm 0 W/m 5,8 C 19,4 C 8,5 km/h (2 Bft)
10/07/2007 23:00 18,5 C 43 % 1009,1 hPa 0,0 l/m 3,5 km/h (1 Bft) O 0,00 h 0,102 mm 0 W/m 5,6 C 18,5 C 5,4 km/h (1 Bft)
11/07/2007 00:00 17,2 C 44 % 1009,0 hPa 0,0 l/m 1,4 km/h (1 Bft) NO 0,00 h 0,076 mm 0 W/m 5,0 C 17,2 C 3,1 km/h (1 Bft)
11/07/2007 01:00 17,5 C 36 % 1008,9 hPa 0,0 l/m 3,4 km/h (1 Bft) O 0,00 h 0,051 mm 0 W/m 2,3 C 17,5 C 5,8 km/h (2 Bft)
11/07/2007 02:00 16,7 C 38 % 1008,9 hPa 0,0 l/m 2,7 km/h (1 Bft) S-SO 0,00 h 0,076 mm 0 W/m 2,4 C 16,7 C 3,6 km/h (1 Bft)
11/07/2007 03:00 16,8 C 37 % 1009,0 hPa 0,0 l/m 4,4 km/h (1 Bft) S-SE 0,00 h 0,076 mm 0 W/m 2,2 C 16,8 C 5,5 km/h (1 Bft)
11/07/2007 04:00 16,1 C 40 % 1009,1 hPa 0,0 l/m 1,4 km/h (1 Bft) E 0,00 h 0,076 mm 0 W/m 2,6 C 16,1 C 2,7 km/h (1 Bft)
11/07/2007 05:00 15,7 C 42 % 1009,5 hPa 0,0 l/m 3,6 km/h (1 Bft) SO 0,00 h 0,051 mm 6 W/m 2,6 C 15,7 C 4,6 km/h (1 Bft)
11/07/2007 06:00 16,1 C 43 % 1010,0 hPa 0,0 l/m 4,1 km/h (1 Bft) O-NO 0,05 h 0,051 mm 15 W/m 3,4 C 16,1 C 5,9 km/h (2 Bft)
11/07/2007 07:00 17,0 C 41 % 1010,3 hPa 0,0 l/m 0,5 km/h (0 Bft) N-NO 0,37 h 0,051 mm 106 W/m 3,6 C 17,0 C 1,7 km/h (1 Bft)
11/07/2007 08:00 19,8 C 34 % 1011,0 hPa 0,0 l/m 4,3 km/h (1 Bft) S-SO 1,00 h 0,076 mm 345 W/m 3,5 C 19,8 C 6,7 km/h (2 Bft)
11/07/2007 09:00 22,2 C 31 % 1011,5 hPa 0,0 l/m 4,4 km/h (1 Bft) E-NE 1,00 h 0,254 mm 513 W/m 4,0 C 22,2 C 7,8 km/h (2 Bft)
11/07/2007 10:00 23,5 C 39 % 1011,9 hPa 0,0 l/m 5,9 km/h (2 Bft) E-SE 1,00 h 0,356 mm 662 W/m 8,6 C 23,5 C 10,4 km/h (2 Bft)
11/07/2007 11:00 24,9 C 32 % 1012,2 hPa 0,0 l/m 7,9 km/h (2 Bft) E 1,00 h 0,457 mm 780 W/m 6,9 C 24,9 C 12,9 km/h (3 Bft)
11/07/2007 12:00 26,0 C 32 % 1012,1 hPa 0,0 l/m 10,0 km/h (2 Bft) E 1,00 h 0,584 mm 863 W/m 7,8 C 26,0 C 16,4 km/h (3 Bft)
11/07/2007 13:00 26,1 C 27 % 1011,7 hPa 0,0 l/m 15,5 km/h (3 Bft) S 1,00 h 0,660 mm 895 W/m 5,3 C 26,1 C 23,4 km/h (4 Bft)
11/07/2007 14:00 26,1 C 25 % 1011,6 hPa 0,0 l/m 19,9 km/h (4 Bft) S-SE 1,00 h 0,762 mm 869 W/m 4,5 C 26,1 C 27,5 km/h (4 Bft)
11/07/2007 15:00 25,8 C 23 % 1011,6 hPa 0,0 l/m 17,3 km/h (3 Bft) S-SE 1,00 h 0,787 mm 803 W/m 3,0 C 25,8 C 25,0 km/h (4 Bft)
11/07/2007 16:00 25,6 C 25 % 1011,9 hPa 0,0 l/m 14,8 km/h (3 Bft) S 1,00 h 0,711 mm 689 W/m 3,8 C 25,6 C 21,9 km/h (4 Bft)
11/07/2007 17:00 25,1 C 26 % 1012,1 hPa 0,0 l/m 13,1 km/h (3 Bft) S-SE 1,00 h 0,610 mm 545 W/m 4,3 C 25,1 C 18,8 km/h (3 Bft)
11/07/2007 18:00 24,7 C 30 % 1012,1 hPa 0,0 l/m 9,1 km/h (2 Bft) S-SE 1,00 h 0,508 mm 380 W/m 5,9 C 24,7 C 13,8 km/h (3 Bft)
11/07/2007 19:00 24,0 C 34 % 1012,1 hPa 0,0 l/m 4,3 km/h (1 Bft) E 1,00 h 0,356 mm 207 W/m 7,2 C 24,0 C 7,0 km/h (2 Bft)
11/07/2007 20:00 22,2 C 36 % 1012,1 hPa 0,0 l/m 1,7 km/h (1 Bft) E 0,10 h 0,178 mm 31 W/m 6,3 C 22,2 C 3,4 km/h (1 Bft)
11/07/2007 21:00 19,4 C 43 % 1012,3 hPa 0,0 l/m 0,5 km/h (0 Bft) E 0,00 h 0,051 mm 7 W/m 6,5 C 19,4 C 1,7 km/h (1 Bft)
11/07/2007 22:00 18,7 C 39 % 1012,8 hPa 0,0 l/m 4,2 km/h (1 Bft) N-NO 0,00 h 0,025 mm 0 W/m 4,3 C 18,7 C 6,9 km/h (2 Bft)
11/07/2007 23:00 18,7 C 36 % 1013,1 hPa 0,0 l/m 4,8 km/h (1 Bft) NO 0,00 h 0,076 mm 0 W/m 3,4 C 18,7 C 7,4 km/h (2 Bft)
12/07/2007 00:00 18,5 C 37 % 1013,1 hPa 0,0 l/m 5,6 km/h (1 Bft) NO 0,00 h 0,102 mm 0 W/m 3,5 C 18,5 C 8,5 km/h (2 Bft)
12/07/2007 01:00 17,5 C 41 % 1013,2 hPa 0,0 l/m 4,3 km/h (1 Bft) O-NO 0,00 h 0,102 mm 0 W/m 4,2 C 17,5 C 6,8 km/h (2 Bft)
12/07/2007 02:00 16,6 C 44 % 1013,3 hPa 0,0 l/m 0,4 km/h (0 Bft) O 0,00 h 0,076 mm 0 W/m 4,2 C 16,6 C 1,0 km/h (0 Bft)
12/07/2007 03:00 17,1 C 42 % 1013,2 hPa 0,0 l/m 3,7 km/h (1 Bft) O-NO 0,00 h 0,051 mm 0 W/m 4,0 C 17,1 C 5,2 km/h (1 Bft)
12/07/2007 04:00 16,8 C 43 % 1013,2 hPa 0,0 l/m 4,5 km/h (1 Bft) O-NO 0,00 h 0,076 mm 0 W/m 4,0 C 16,8 C 5,8 km/h (2 Bft)
12/07/2007 05:00 16,2 C 44 % 1013,6 hPa 0,0 l/m 0,7 km/h (0 Bft) O-NO 0,00 h 0,076 mm 5 W/m 4,0 C 16,2 C 1,4 km/h (1 Bft)
12/07/2007 06:00 16,1 C 46 % 1013,9 hPa 0,0 l/m 0,8 km/h (0 Bft) O-NO 0,05 h 0,025 mm 16 W/m 4,5 C 16,1 C 1,7 km/h (1 Bft)
12/07/2007 07:00 17,2 C 45 % 1014,5 hPa 0,0 l/m 0,3 km/h (0 Bft) O-NO 0,32 h 0,025 mm 99 W/m 5,3 C 17,2 C 1,7 km/h (1 Bft)
12/07/2007 08:00 20,8 C 36 % 1014,9 hPa 0,0 l/m 0,6 km/h (0 Bft) NO 1,00 h 0,076 mm 340 W/m 5,4 C 20,8 C 1,9 km/h (1 Bft)
12/07/2007 09:00 22,9 C 32 % 1015,4 hPa 0,0 l/m 5,1 km/h (1 Bft) S 1,00 h 0,229 mm 509 W/m 5,2 C 22,9 C 8,0 km/h (2 Bft)
12/07/2007 10:00 24,4 C 34 % 1015,8 hPa 0,0 l/m 6,7 km/h (2 Bft) E-SE 1,00 h 0,381 mm 659 W/m 7,4 C 24,4 C 11,0 km/h (2 Bft)
12/07/2007 11:00 25,3 C 43 % 1016,0 hPa 0,0 l/m 10,1 km/h (2 Bft) E 1,00 h 0,483 mm 779 W/m 11,7 C 25,3 C 14,6 km/h (3 Bft)
12/07/2007 12:00 25,1 C 46 % 1016,2 hPa 0,0 l/m 11,0 km/h (2 Bft) E 1,00 h 0,584 mm 860 W/m 12,6 C 25,1 C 16,7 km/h (3 Bft)
12/07/2007 13:00 25,1 C 48 % 1016,3 hPa 0,0 l/m 12,0 km/h (2 Bft) E 1,00 h 0,635 mm 887 W/m 13,2 C 25,1 C 17,3 km/h (3 Bft)
12/07/2007 14:00 24,9 C 54 % 1016,0 hPa 0,0 l/m 10,1 km/h (2 Bft) E 1,00 h 0,660 mm 864 W/m 14,9 C 24,9 C 15,4 km/h (3 Bft)
12/07/2007 15:00 25,0 C 55 % 1016,0 hPa 0,0 l/m 10,2 km/h (2 Bft) E 1,00 h 0,610 mm 792 W/m 15,3 C 25,0 C 15,2 km/h (3 Bft)
12/07/2007 16:00 24,9 C 56 % 1016,3 hPa 0,0 l/m 9,5 km/h (2 Bft) E 1,00 h 0,559 mm 674 W/m 15,5 C 24,9 C 14,3 km/h (3 Bft)
12/07/2007 17:00 24,4 C 57 % 1016,4 hPa 0,0 l/m 7,8 km/h (2 Bft) E 1,00 h 0,483 mm 528 W/m 15,3 C 24,4 C 12,0 km/h (2 Bft)
12/07/2007 18:00 24,5 C 57 % 1016,2 hPa 0,0 l/m 5,6 km/h (1 Bft) E 1,00 h 0,381 mm 366 W/m 15,4 C 24,5 C 9,1 km/h (2 Bft)
12/07/2007 19:00 23,9 C 54 % 1016,2 hPa 0,0 l/m 3,7 km/h (1 Bft) E 1,00 h 0,279 mm 201 W/m 14,2 C 23,9 C 6,0 km/h (2 Bft)
12/07/2007 20:00 21,4 C 59 % 1016,4 hPa 0,0 l/m 1,5 km/h (1 Bft) E 0,07 h 0,152 mm 31 W/m 12,9 C 21,4 C 2,7 km/h (1 Bft)
12/07/2007 21:00 19,5 C 65 % 1016,7 hPa 0,0 l/m 1,9 km/h (1 Bft) E-SE 0,02 h 0,025 mm 7 W/m 12,7 C 19,5 C 2,7 km/h (1 Bft)
12/07/2007 22:00 18,5 C 69 % 1017,1 hPa 0,0 l/m 1,3 km/h (1 Bft) S-SE 0,00 h 0,025 mm 0 W/m 12,7 C 18,5 C 2,1 km/h (1 Bft)
12/07/2007 23:00 17,6 C 74 % 1017,3 hPa 0,0 l/m 0,1 km/h (0 Bft) NE 0,00 h 0,025 mm 0 W/m 12,8 C 17,6 C 1,0 km/h (0 Bft)
13/07/2007 00:00 16,7 C 77 % 1017,4 hPa 0,0 l/m 0,2 km/h (0 Bft) N-NE 0,00 h 0,025 mm 0 W/m 12,7 C 16,7 C 0,7 km/h (0 Bft)
13/07/2007 01:00 17,2 C 69 % 1017,4 hPa 0,0 l/m 1,8 km/h (1 Bft) N 0,00 h 0,025 mm 0 W/m 11,4 C 17,2 C 3,1 km/h (1 Bft)
13/07/2007 02:00 16,9 C 64 % 1017,4 hPa 0,0 l/m 1,6 km/h (1 Bft) NO 0,00 h 0,025 mm 0 W/m 10,2 C 16,9 C 2,9 km/h (1 Bft)
13/07/2007 03:00 16,4 C 65 % 1017,5 hPa 0,0 l/m 1,5 km/h (1 Bft) N-NO 0,00 h 0,051 mm 0 W/m 9,8 C 16,4 C 3,6 km/h (1 Bft)
13/07/2007 04:00 15,9 C 72 % 1017,5 hPa 0,0 l/m 3,2 km/h (1 Bft) N-NE 0,00 h 0,051 mm 0 W/m 10,8 C 15,9 C 5,8 km/h (2 Bft)
13/07/2007 05:00 15,8 C 70 % 1018,0 hPa 0,0 l/m 3,1 km/h (1 Bft) N 0,00 h 0,025 mm 0 W/m 10,4 C 15,8 C 5,7 km/h (1 Bft)
13/07/2007 06:00 15,4 C 74 % 1018,3 hPa 0,0 l/m 1,4 km/h (1 Bft) N 0,02 h 0,025 mm 16 W/m 10,8 C 15,4 C 3,7 km/h (1 Bft)
13/07/2007 07:00 17,3 C 73 % 1018,3 hPa 0,0 l/m 1,5 km/h (1 Bft) N 0,32 h 0,025 mm 94 W/m 12,4 C 17,3 C 3,4 km/h (1 Bft)
13/07/2007 08:00 20,8 C 60 % 1018,7 hPa 0,0 l/m 3,7 km/h (1 Bft) NE 1,00 h 0,076 mm 327 W/m 12,8 C 20,8 C 6,3 km/h (2 Bft)
13/07/2007 09:00 22,5 C 62 % 1019,1 hPa 0,0 l/m 6,2 km/h (2 Bft) E-NE 1,00 h 0,229 mm 491 W/m 14,9 C 22,5 C 9,6 km/h (2 Bft)
13/07/2007 10:00 23,1 C 65 % 1019,4 hPa 0,0 l/m 7,7 km/h (2 Bft) E 1,00 h 0,330 mm 644 W/m 16,3 C 23,1 C 14,1 km/h (3 Bft)
13/07/2007 11:00 23,7 C 65 % 1019,6 hPa 0,0 l/m 10,0 km/h (2 Bft) E 1,00 h 0,432 mm 769 W/m 16,6 C 23,7 C 16,1 km/h (3 Bft)
13/07/2007 12:00 24,2 C 60 % 1019,9 hPa 0,0 l/m 9,8 km/h (2 Bft) E 1,00 h 0,533 mm 845 W/m 16,0 C 24,2 C 16,4 km/h (3 Bft)
13/07/2007 13:00 24,3 C 55 % 1020,1 hPa 0,0 l/m 10,1 km/h (2 Bft) E 1,00 h 0,584 mm 877 W/m 14,7 C 24,3 C 16,4 km/h (3 Bft)
13/07/2007 14:00 24,5 C 52 % 1019,9 hPa 0,0 l/m 9,0 km/h (2 Bft) E 1,00 h 0,610 mm 859 W/m 13,9 C 24,5 C 15,0 km/h (3 Bft)
13/07/2007 15:00 24,2 C 55 % 1019,8 hPa 0,0 l/m 8,2 km/h (2 Bft) E 1,00 h 0,610 mm 790 W/m 14,6 C 24,2 C 13,6 km/h (3 Bft)
13/07/2007 16:00 24,0 C 55 % 1019,7 hPa 0,0 l/m 6,6 km/h (2 Bft) E-SE 1,00 h 0,559 mm 680 W/m 14,5 C 24,0 C 11,4 km/h (2 Bft)
13/07/2007 17:00 24,5 C 51 % 1019,6 hPa 0,0 l/m 4,9 km/h (1 Bft) E 1,00 h 0,457 mm 535 W/m 13,8 C 24,5 C 8,6 km/h (2 Bft)
13/07/2007 18:00 23,7 C 52 % 1019,2 hPa 0,0 l/m 3,7 km/h (1 Bft) E-SE 1,00 h 0,381 mm 370 W/m 13,4 C 23,7 C 7,0 km/h (2 Bft)
13/07/2007 19:00 23,1 C 52 % 1019,1 hPa 0,0 l/m 1,7 km/h (1 Bft) E-SE 1,00 h 0,254 mm 200 W/m 12,6 C 23,1 C 4,5 km/h (1 Bft)
13/07/2007 20:00 20,7 C 61 % 1019,1 hPa 0,0 l/m 0,6 km/h (0 Bft) E-SE 0,05 h 0,152 mm 30 W/m 13,0 C 20,7 C 2,0 km/h (1 Bft)
13/07/2007 21:00 18,7 C 77 % 1019,3 hPa 0,0 l/m 0,0 km/h (0 Bft) N 0,00 h 0,025 mm 7 W/m 14,5 C 18,7 C 0,1 km/h (0 Bft)
13/07/2007 22:00 17,4 C 85 % 1019,6 hPa 0,0 l/m 0,6 km/h (0 Bft) N-NE 0,00 h 0,000 mm 0 W/m 14,9 C 17,4 C 1,6 km/h (1 Bft)
13/07/2007 23:00 16,9 C 81 % 1019,6 hPa 0,0 l/m 1,9 km/h (1 Bft) N-NO 0,00 h 0,025 mm 0 W/m 13,5 C 16,9 C 3,6 km/h (1 Bft)
14/07/2007 00:00 17,2 C 78 % 1019,6 hPa 0,0 l/m 3,2 km/h (1 Bft) S 0,00 h 0,025 mm 0 W/m 13,2 C 17,2 C 4,2 km/h (1 Bft)
14/07/2007 01:00 16,6 C 82 % 1019,6 hPa 0,0 l/m 1,2 km/h (1 Bft) O 0,00 h 0,025 mm 0 W/m 13,5 C 16,6 C 2,3 km/h (1 Bft)
14/07/2007 02:00 16,8 C 79 % 1019,6 hPa 0,0 l/m 1,4 km/h (1 Bft) NO 0,00 h 0,025 mm 0 W/m 13,2 C 16,8 C 3,1 km/h (1 Bft)
14/07/2007 03:00 16,6 C 75 % 1019,3 hPa 0,0 l/m 0,9 km/h (0 Bft) NO 0,00 h 0,025 mm 0 W/m 12,1 C 16,6 C 1,4 km/h (1 Bft)
14/07/2007 04:00 16,7 C 71 % 1019,2 hPa 0,0 l/m 3,2 km/h (1 Bft) O 0,00 h 0,025 mm 0 W/m 11,5 C 16,7 C 4,4 km/h (1 Bft)
14/07/2007 05:00 16,1 C 63 % 1019,3 hPa 0,0 l/m 1,9 km/h (1 Bft) O-NO 0,00 h 0,051 mm 0 W/m 9,0 C 16,1 C 3,7 km/h (1 Bft)
14/07/2007 06:00 16,9 C 57 % 1019,6 hPa 0,0 l/m 1,9 km/h (1 Bft) O-NO 0,02 h 0,025 mm 15 W/m 8,3 C 16,9 C 3,0 km/h (1 Bft)
14/07/2007 07:00 18,1 C 52 % 1019,8 hPa 0,0 l/m 0,3 km/h (0 Bft) O-NO 0,32 h 0,025 mm 92 W/m 8,2 C 18,1 C 1,2 km/h (1 Bft)
14/07/2007 08:00 21,4 C 46 % 1020,3 hPa 0,0 l/m 2,5 km/h (1 Bft) E-SE 1,00 h 0,076 mm 337 W/m 9,4 C 21,4 C 4,2 km/h (1 Bft)
14/07/2007 09:00 23,7 C 44 % 1020,6 hPa 0,0 l/m 4,1 km/h (1 Bft) E-SE 1,00 h 0,229 mm 505 W/m 10,8 C 23,7 C 7,0 km/h (2 Bft)
14/07/2007 10:00 25,6 C 41 % 1020,7 hPa 0,0 l/m 4,9 km/h (1 Bft) E 1,00 h 0,356 mm 656 W/m 11,2 C 25,6 C 9,1 km/h (2 Bft)
14/07/2007 11:00 26,5 C 41 % 1020,6 hPa 0,0 l/m 6,9 km/h (2 Bft) E-SE 1,00 h 0,457 mm 778 W/m 12,1 C 26,5 C 10,6 km/h (2 Bft)
14/07/2007 12:00 27,1 C 39 % 1020,7 hPa 0,0 l/m 11,7 km/h (2 Bft) E 1,00 h 0,559 mm 857 W/m 12,1 C 27,1 C 17,1 km/h (3 Bft)
14/07/2007 13:00 27,7 C 40 % 1020,7 hPa 0,0 l/m 11,6 km/h (2 Bft) E 1,00 h 0,660 mm 888 W/m 12,7 C 27,7 C 16,6 km/h (3 Bft)
14/07/2007 14:00 27,2 C 43 % 1020,6 hPa 0,0 l/m 11,3 km/h (2 Bft) E 1,00 h 0,686 mm 868 W/m 13,5 C 27,2 C 16,4 km/h (3 Bft)
14/07/2007 15:00 27,0 C 47 % 1020,4 hPa 0,0 l/m 9,5 km/h (2 Bft) E 1,00 h 0,660 mm 800 W/m 14,9 C 27,0 C 14,1 km/h (3 Bft)
14/07/2007 16:00 26,5 C 48 % 1020,0 hPa 0,0 l/m 8,6 km/h (2 Bft) E 1,00 h 0,610 mm 689 W/m 14,5 C 26,5 C 12,7 km/h (3 Bft)
14/07/2007 17:00 26,7 C 46 % 1019,8 hPa 0,0 l/m 7,2 km/h (2 Bft) E 1,00 h 0,508 mm 542 W/m 14,2 C 26,7 C 10,5 km/h (2 Bft)
14/07/2007 18:00 25,8 C 50 % 1019,5 hPa 0,0 l/m 5,0 km/h (1 Bft) E 1,00 h 0,406 mm 372 W/m 14,5 C 25,8 C 7,5 km/h (2 Bft)
14/07/2007 19:00 25,0 C 48 % 1019,4 hPa 0,0 l/m 3,4 km/h (1 Bft) E 1,00 h 0,279 mm 203 W/m 13,2 C 25,0 C 5,8 km/h (2 Bft)
14/07/2007 20:00 22,7 C 58 % 1019,4 hPa 0,0 l/m 0,4 km/h (0 Bft) E-NE 0,05 h 0,152 mm 28 W/m 13,8 C 22,7 C 1,3 km/h (1 Bft)
14/07/2007 21:00 20,6 C 69 % 1019,5 hPa 0,0 l/m 0,0 km/h (0 Bft) N 0,02 h 0,025 mm 6 W/m 14,8 C 20,6 C 0,1 km/h (0 Bft)
14/07/2007 22:00 20,4 C 61 % 1019,7 hPa 0,0 l/m 0,7 km/h (0 Bft) N 0,00 h 0,000 mm 0 W/m 12,5 C 20,4 C 1,3 km/h (1 Bft)
14/07/2007 23:00 19,9 C 63 % 1019,7 hPa 0,0 l/m 0,3 km/h (0 Bft) N 0,00 h 0,051 mm 0 W/m 12,7 C 19,9 C 0,6 km/h (0 Bft)
15/07/2007 00:00 19,7 C 62 % 1019,5 hPa 0,0 l/m 1,2 km/h (1 Bft) N-NO 0,00 h 0,051 mm 0 W/m 12,2 C 19,7 C 2,1 km/h (1 Bft)
15/07/2007 01:00 19,7 C 61 % 1019,3 hPa 0,0 l/m 1,8 km/h (1 Bft) O 0,00 h 0,051 mm 0 W/m 11,9 C 19,7 C 2,4 km/h (1 Bft)
15/07/2007 02:00 18,7 C 58 % 1018,9 hPa 0,0 l/m 4,1 km/h (1 Bft) NO 0,00 h 0,051 mm 0 W/m 10,2 C 18,7 C 5,7 km/h (1 Bft)
15/07/2007 03:00 18,7 C 52 % 1018,8 hPa 0,0 l/m 2,6 km/h (1 Bft) N-NO 0,00 h 0,051 mm 0 W/m 8,5 C 18,7 C 4,5 km/h (1 Bft)
15/07/2007 04:00 19,0 C 54 % 1018,8 hPa 0,0 l/m 0,8 km/h (0 Bft) N-NO 0,00 h 0,051 mm 0 W/m 9,6 C 19,0 C 1,5 km/h (1 Bft)
15/07/2007 05:00 18,9 C 48 % 1018,9 hPa 0,0 l/m 3,7 km/h (1 Bft) O-NO 0,00 h 0,051 mm 0 W/m 7,6 C 18,9 C 5,5 km/h (1 Bft)
15/07/2007 06:00 18,5 C 46 % 1019,1 hPa 0,0 l/m 1,6 km/h (1 Bft) NO 0,00 h 0,051 mm 14 W/m 6,6 C 18,5 C 3,1 km/h (1 Bft)
15/07/2007 07:00 19,3 C 44 % 1019,4 hPa 0,0 l/m 0,9 km/h (0 Bft) N 0,30 h 0,025 mm 91 W/m 6,8 C 19,3 C 2,6 km/h (1 Bft)
15/07/2007 08:00 23,4 C 35 % 1019,6 hPa 0,0 l/m 0,6 km/h (0 Bft) N 1,00 h 0,076 mm 341 W/m 7,0 C 23,4 C 2,4 km/h (1 Bft)
15/07/2007 09:00 27,0 C 28 % 1019,8 hPa 0,0 l/m 3,3 km/h (1 Bft) E-SE 1,00 h 0,229 mm 514 W/m 7,1 C 27,0 C 5,9 km/h (2 Bft)
15/07/2007 10:00 29,2 C 21 % 1019,9 hPa 0,0 l/m 7,2 km/h (2 Bft) E-NE 1,00 h 0,381 mm 671 W/m 4,5 C 29,2 C 11,6 km/h (2 Bft)
15/07/2007 11:00 30,3 C 18 % 1019,9 hPa 0,0 l/m 8,4 km/h (2 Bft) E 1,00 h 0,559 mm 795 W/m 3,1 C 30,3 C 12,9 km/h (3 Bft)
15/07/2007 12:00 30,8 C 17 % 1019,9 hPa 0,0 l/m 6,9 km/h (2 Bft) SE 1,00 h 0,660 mm 879 W/m 3,2 C 30,8 C 11,8 km/h (2 Bft)
15/07/2007 13:00 30,8 C 17 % 1019,9 hPa 0,0 l/m 6,5 km/h (2 Bft) E 1,00 h 0,711 mm 913 W/m 3,3 C 30,8 C 10,9 km/h (2 Bft)
15/07/2007 14:00 30,8 C 17 % 1019,7 hPa 0,0 l/m 7,5 km/h (2 Bft) E 1,00 h 0,711 mm 895 W/m 3,1 C 30,8 C 12,7 km/h (3 Bft)
15/07/2007 15:00 30,3 C 18 % 1019,4 hPa 0,0 l/m 7,5 km/h (2 Bft) E 1,00 h 0,711 mm 823 W/m 3,5 C 30,3 C 13,0 km/h (3 Bft)
15/07/2007 16:00 30,0 C 20 % 1019,0 hPa 0,0 l/m 5,3 km/h (1 Bft) E 1,00 h 0,660 mm 706 W/m 4,7 C 30,0 C 9,4 km/h (2 Bft)
15/07/2007 17:00 29,9 C 19 % 1018,7 hPa 0,0 l/m 4,8 km/h (1 Bft) E 1,00 h 0,559 mm 557 W/m 3,8 C 29,9 C 8,3 km/h (2 Bft)
15/07/2007 18:00 29,2 C 21 % 1018,4 hPa 0,0 l/m 5,0 km/h (1 Bft) E 1,00 h 0,457 mm 390 W/m 4,4 C 29,2 C 7,8 km/h (2 Bft)
15/07/2007 19:00 28,0 C 22 % 1018,3 hPa 0,0 l/m 2,5 km/h (1 Bft) E 1,00 h 0,330 mm 215 W/m 4,6 C 28,0 C 4,3 km/h (1 Bft)
15/07/2007 20:00 25,5 C 27 % 1017,8 hPa 0,0 l/m 1,5 km/h (1 Bft) E 0,05 h 0,178 mm 29 W/m 5,3 C 25,5 C 2,9 km/h (1 Bft)
15/07/2007 21:00 23,2 C 30 % 1017,7 hPa 0,0 l/m 0,1 km/h (0 Bft) E 0,02 h 0,051 mm 6 W/m 4,8 C 23,2 C 0,5 km/h (0 Bft)
15/07/2007 22:00 22,9 C 30 % 1018,1 hPa 0,0 l/m 0,9 km/h (0 Bft) E-NE 0,00 h 0,025 mm 0 W/m 4,4 C 22,9 C 2,0 km/h (1 Bft)
15/07/2007 23:00 22,3 C 30 % 1018,2 hPa 0,0 l/m 4,0 km/h (1 Bft) O 0,00 h 0,076 mm 0 W/m 3,7 C 22,3 C 5,4 km/h (1 Bft)
Min-Date _ 13/07/07 15/07/07 10/07/07 - 09/07/07 - - - - 10/07/07 13/07/07 09/07/07
_ Min-Heure 06:06 11:55 03:45 - 00:02 - - - - 03:34 06:06 03:04
Minimum _ 15,2 C 15 % 1005,1 hPa - 0,0 km/h (0 Bft) - - - - -2,1 C 15,2 C 0,0 km/h (0 Bft)
Max-Date _ 15/07/07 09/07/07 14/07/07 09/07/07 09/07/07 - 10/07/07 11/07/07 09/07/07 09/07/07 15/07/07 09/07/07
_ Max-Heure 13:47 09:50 12:15 08:19 16:55 - 09:40 15:00 13:54 12:49 13:47 21:12
Maximum _ 32,2 C 98 % 1020,8 hPa 0,8 l/m 30,6 km/h
NE (5 Bft)
- 0,03 h 0,787 mm 1071 W/m 20,8 C 32,2 C 43,5 km/h
O (6 Bft)
Moyenne _ 22,0 C 48 % 1014,6 hPa #1,6 l/m 6,0 km/h (2 Bft) E #81:57 h #44,416 mm 448 W/m 9,2 C 22,0 C 9,3 km/h (2 Bft)
Roquefort les pins